sensor_id;sensor_type;location;lat;lon;timestamp;pressure;altitude;pressure_sealevel;temperature;humidity
60244;BME280;46106;51.468;5.814;2023-11-21T00:01:54;100776.06;;;7.36;100.00
60244;BME280;46106;51.468;5.814;2023-11-21T00:04:19;100774.13;;;7.39;100.00
60244;BME280;46106;51.468;5.814;2023-11-21T00:06:45;100779.47;;;7.40;100.00
60244;BME280;46106;51.468;5.814;2023-11-21T00:09:13;100781.69;;;7.48;100.00
60244;BME280;46106;51.468;5.814;2023-11-21T00:11:41;100777.69;;;7.39;100.00
60244;BME280;46106;51.468;5.814;2023-11-21T00:14:06;100780.97;;;7.44;100.00
60244;BME280;46106;51.468;5.814;2023-11-21T00:16:32;100785.38;;;7.47;100.00
60244;BME280;46106;51.468;5.814;2023-11-21T00:18:57;100776.69;;;7.54;100.00
60244;BME280;46106;51.468;5.814;2023-11-21T00:21:22;100776.88;;;7.51;100.00
60244;BME280;46106;51.468;5.814;2023-11-21T00:23:48;100778.09;;;7.60;100.00
60244;BME280;46106;51.468;5.814;2023-11-21T00:26:13;100785.22;;;7.63;100.00
60244;BME280;46106;51.468;5.814;2023-11-21T00:28:39;100790.34;;;7.67;100.00
60244;BME280;46106;51.468;5.814;2023-11-21T00:31:05;100793.84;;;7.69;100.00
60244;BME280;46106;51.468;5.814;2023-11-21T00:33:30;100787.94;;;7.63;100.00
60244;BME280;46106;51.468;5.814;2023-11-21T00:35:57;100796.00;;;7.64;100.00
60244;BME280;46106;51.468;5.814;2023-11-21T00:38:22;100792.28;;;7.65;100.00
60244;BME280;46106;51.468;5.814;2023-11-21T00:40:48;100792.28;;;7.65;100.00
60244;BME280;46106;51.468;5.814;2023-11-21T00:43:13;100792.19;;;7.67;100.00
60244;BME280;46106;51.468;5.814;2023-11-21T00:45:39;100804.75;;;7.69;100.00
60244;BME280;46106;51.468;5.814;2023-11-21T00:48:05;100800.34;;;7.67;100.00
60244;BME280;46106;51.468;5.814;2023-11-21T00:50:31;100801.25;;;7.67;100.00
60244;BME280;46106;51.468;5.814;2023-11-21T00:52:56;100796.97;;;7.63;100.00
60244;BME280;46106;51.468;5.814;2023-11-21T00:55:22;100787.13;;;7.61;100.00
60244;BME280;46106;51.468;5.814;2023-11-21T00:57:48;100792.59;;;7.61;100.00
60244;BME280;46106;51.468;5.814;2023-11-21T01:00:14;100788.13;;;7.60;100.00
60244;BME280;46106;51.468;5.814;2023-11-21T01:02:45;100788.44;;;7.55;100.00
60244;BME280;46106;51.468;5.814;2023-11-21T01:05:10;100799.59;;;7.65;100.00
60244;BME280;46106;51.468;5.814;2023-11-21T01:07:36;100796.72;;;7.53;100.00
60244;BME280;46106;51.468;5.814;2023-11-21T01:10:04;100807.09;;;7.61;100.00
60244;BME280;46106;51.468;5.814;2023-11-21T01:12:37;100804.84;;;7.68;100.00
60244;BME280;46106;51.468;5.814;2023-11-21T01:15:04;100808.53;;;7.67;100.00
60244;BME280;46106;51.468;5.814;2023-11-21T01:17:32;100813.25;;;7.78;100.00
60244;BME280;46106;51.468;5.814;2023-11-21T01:19:59;100816.41;;;7.71;100.00
60244;BME280;46106;51.468;5.814;2023-11-21T01:22:25;100821.09;;;7.69;100.00
60244;BME280;46106;51.468;5.814;2023-11-21T01:24:52;100821.09;;;7.69;100.00
60244;BME280;46106;51.468;5.814;2023-11-21T01:27:18;100829.06;;;7.72;100.00
60244;BME280;46106;51.468;5.814;2023-11-21T01:29:43;100834.50;;;7.72;100.00
60244;BME280;46106;51.468;5.814;2023-11-21T01:32:10;100844.00;;;7.80;100.00
60244;BME280;46106;51.468;5.814;2023-11-21T01:34:36;100839.63;;;7.77;100.00
60244;BME280;46106;51.468;5.814;2023-11-21T01:37:03;100846.22;;;7.87;100.00
60244;BME280;46106;51.468;5.814;2023-11-21T01:39:31;100841.38;;;7.78;100.00
60244;BME280;46106;51.468;5.814;2023-11-21T01:41:57;100848.84;;;7.89;100.00
60244;BME280;46106;51.468;5.814;2023-11-21T01:44:26;100853.50;;;7.87;100.00
60244;BME280;46106;51.468;5.814;2023-11-21T01:46:54;100854.28;;;7.89;100.00
60244;BME280;46106;51.468;5.814;2023-11-21T01:49:21;100853.59;;;7.85;100.00
60244;BME280;46106;51.468;5.814;2023-11-21T01:51:48;100851.88;;;7.84;100.00
60244;BME280;46106;51.468;5.814;2023-11-21T01:54:16;100848.28;;;7.84;100.00
60244;BME280;46106;51.468;5.814;2023-11-21T01:56:43;100854.97;;;7.93;100.00
60244;BME280;46106;51.468;5.814;2023-11-21T01:59:14;100849.97;;;7.99;100.00
60244;BME280;46106;51.468;5.814;2023-11-21T02:01:41;100851.47;;;7.90;100.00
60244;BME280;46106;51.468;5.814;2023-11-21T02:04:06;100851.25;;;7.94;100.00
60244;BME280;46106;51.468;5.814;2023-11-21T02:06:33;100845.88;;;7.79;100.00
60244;BME280;46106;51.468;5.814;2023-11-21T02:08:59;100850.47;;;7.91;100.00
60244;BME280;46106;51.468;5.814;2023-11-21T02:11:24;100844.50;;;7.99;100.00
60244;BME280;46106;51.468;5.814;2023-11-21T02:13:50;100849.00;;;8.00;100.00
60244;BME280;46106;51.468;5.814;2023-11-21T02:16:20;100846.78;;;7.93;100.00
60244;BME280;46106;51.468;5.814;2023-11-21T02:18:50;100850.22;;;7.82;100.00
60244;BME280;46106;51.468;5.814;2023-11-21T02:21:17;100861.28;;;7.93;100.00
60244;BME280;46106;51.468;5.814;2023-11-21T02:23:44;100863.25;;;7.91;100.00
60244;BME280;46106;51.468;5.814;2023-11-21T02:26:13;100868.34;;;7.83;100.00
60244;BME280;46106;51.468;5.814;2023-11-21T02:28:39;100874.56;;;7.85;100.00
60244;BME280;46106;51.468;5.814;2023-11-21T02:31:05;100880.50;;;7.77;100.00
60244;BME280;46106;51.468;5.814;2023-11-21T02:33:31;100883.22;;;7.77;100.00
60244;BME280;46106;51.468;5.814;2023-11-21T02:36:00;100878.78;;;7.76;100.00
60244;BME280;46106;51.468;5.814;2023-11-21T02:38:25;100875.53;;;7.84;100.00
60244;BME280;46106;51.468;5.814;2023-11-21T02:40:51;100877.38;;;7.83;100.00
60244;BME280;46106;51.468;5.814;2023-11-21T02:43:16;100875.06;;;7.77;100.00
60244;BME280;46106;51.468;5.814;2023-11-21T02:45:42;100886.66;;;7.81;100.00
60244;BME280;46106;51.468;5.814;2023-11-21T02:48:07;100883.50;;;7.87;100.00
60244;BME280;46106;51.468;5.814;2023-11-21T02:50:33;100888.69;;;7.77;100.00
60244;BME280;46106;51.468;5.814;2023-11-21T02:53:00;100884.59;;;7.84;100.00
60244;BME280;46106;51.468;5.814;2023-11-21T02:55:26;100888.59;;;7.79;100.00
60244;BME280;46106;51.468;5.814;2023-11-21T02:57:52;100878.13;;;7.72;100.00
60244;BME280;46106;51.468;5.814;2023-11-21T03:00:17;100883.47;;;7.74;100.00
60244;BME280;46106;51.468;5.814;2023-11-21T03:02:43;100885.19;;;7.75;100.00
60244;BME280;46106;51.468;5.814;2023-11-21T03:05:09;100881.44;;;7.63;100.00
60244;BME280;46106;51.468;5.814;2023-11-21T03:07:39;100887.38;;;7.55;100.00
60244;BME280;46106;51.468;5.814;2023-11-21T03:10:06;100884.50;;;7.44;100.00
60244;BME280;46106;51.468;5.814;2023-11-21T03:12:35;100888.50;;;7.39;100.00
60244;BME280;46106;51.468;5.814;2023-11-21T03:15:02;100888.31;;;7.42;100.00
60244;BME280;46106;51.468;5.814;2023-11-21T03:17:27;100886.44;;;7.42;100.00
60244;BME280;46106;51.468;5.814;2023-11-21T03:19:54;100896.19;;;7.46;100.00
60244;BME280;46106;51.468;5.814;2023-11-21T03:22:20;100896.66;;;7.53;100.00
60244;BME280;46106;51.468;5.814;2023-11-21T03:24:45;100904.72;;;7.54;100.00
60244;BME280;46106;51.468;5.814;2023-11-21T03:27:11;100898.53;;;7.38;100.00
60244;BME280;46106;51.468;5.814;2023-11-21T03:29:37;100902.59;;;7.45;100.00
60244;BME280;46106;51.468;5.814;2023-11-21T03:32:03;100910.94;;;7.57;100.00
60244;BME280;46106;51.468;5.814;2023-11-21T03:34:28;100904.63;;;7.56;100.00
60244;BME280;46106;51.468;5.814;2023-11-21T03:36:54;100909.63;;;7.49;100.00
60244;BME280;46106;51.468;5.814;2023-11-21T03:39:20;100917.56;;;7.52;100.00
60244;BME280;46106;51.468;5.814;2023-11-21T03:41:47;100912.84;;;7.27;100.00
60244;BME280;46106;51.468;5.814;2023-11-21T03:44:13;100914.78;;;7.25;100.00
60244;BME280;46106;51.468;5.814;2023-11-21T03:46:40;100925.50;;;7.28;100.00
60244;BME280;46106;51.468;5.814;2023-11-21T03:49:05;100921.09;;;7.26;100.00
60244;BME280;46106;51.468;5.814;2023-11-21T03:51:33;100922.47;;;7.33;100.00
60244;BME280;46106;51.468;5.814;2023-11-21T03:53:59;100919.13;;;7.42;100.00
60244;BME280;46106;51.468;5.814;2023-11-21T03:56:25;100918.56;;;7.08;100.00
60244;BME280;46106;51.468;5.814;2023-11-21T03:58:53;100921.09;;;7.11;100.00
60244;BME280;46106;51.468;5.814;2023-11-21T04:01:20;100921.88;;;7.28;100.00
60244;BME280;46106;51.468;5.814;2023-11-21T04:03:47;100928.31;;;7.12;100.00
60244;BME280;46106;51.468;5.814;2023-11-21T04:06:12;100923.75;;;7.13;100.00
60244;BME280;46106;51.468;5.814;2023-11-21T04:08:38;100926.56;;;7.11;100.00
60244;BME280;46106;51.468;5.814;2023-11-21T04:11:03;100923.34;;;7.19;100.00
60244;BME280;46106;51.468;5.814;2023-11-21T04:13:30;100923.06;;;7.24;100.00
60244;BME280;46106;51.468;5.814;2023-11-21T04:15:56;100923.06;;;7.09;100.00
60244;BME280;46106;51.468;5.814;2023-11-21T04:18:22;100925.59;;;7.27;100.00
60244;BME280;46106;51.468;5.814;2023-11-21T04:20:48;100924.81;;;7.10;100.00
60244;BME280;46106;51.468;5.814;2023-11-21T04:23:14;100931.13;;;7.11;100.00
60244;BME280;46106;51.468;5.814;2023-11-21T04:25:40;100935.00;;;7.21;100.00
60244;BME280;46106;51.468;5.814;2023-11-21T04:28:06;100948.53;;;7.37;100.00
60244;BME280;46106;51.468;5.814;2023-11-21T04:30:31;100942.69;;;7.29;100.00
60244;BME280;46106;51.468;5.814;2023-11-21T04:32:58;100960.56;;;7.47;100.00
60244;BME280;46106;51.468;5.814;2023-11-21T04:35:23;100960.47;;;7.49;100.00
60244;BME280;46106;51.468;5.814;2023-11-21T04:37:48;100957.56;;;7.52;100.00
60244;BME280;46106;51.468;5.814;2023-11-21T04:40:16;100965.06;;;7.63;100.00
60244;BME280;46106;51.468;5.814;2023-11-21T04:42:43;100957.66;;;7.50;100.00
60244;BME280;46106;51.468;5.814;2023-11-21T04:45:08;100964.25;;;7.61;100.00
60244;BME280;46106;51.468;5.814;2023-11-21T04:47:35;100971.38;;;7.63;100.00
60244;BME280;46106;51.468;5.814;2023-11-21T04:50:02;100977.78;;;7.62;100.00
60244;BME280;46106;51.468;5.814;2023-11-21T04:52:28;100978.97;;;7.58;100.00
60244;BME280;46106;51.468;5.814;2023-11-21T04:54:53;100979.34;;;7.66;100.00
60244;BME280;46106;51.468;5.814;2023-11-21T04:57:22;100982.16;;;7.65;100.00
60244;BME280;46106;51.468;5.814;2023-11-21T04:59:49;100990.94;;;7.55;100.00
60244;BME280;46106;51.468;5.814;2023-11-21T05:02:14;100984.50;;;7.57;100.00
60244;BME280;46106;51.468;5.814;2023-11-21T05:04:40;100987.16;;;7.44;100.00
60244;BME280;46106;51.468;5.814;2023-11-21T05:07:09;100996.56;;;7.52;100.00
60244;BME280;46106;51.468;5.814;2023-11-21T05:09:34;100997.66;;;7.50;100.00
60244;BME280;46106;51.468;5.814;2023-11-21T05:12:01;101002.41;;;7.61;100.00
60244;BME280;46106;51.468;5.814;2023-11-21T05:14:27;101002.53;;;7.59;100.00
60244;BME280;46106;51.468;5.814;2023-11-21T05:16:52;101006.78;;;7.63;100.00
60244;BME280;46106;51.468;5.814;2023-11-21T05:19:18;101008.38;;;7.53;100.00
60244;BME280;46106;51.468;5.814;2023-11-21T05:21:43;101005.53;;;7.54;100.00
60244;BME280;46106;51.468;5.814;2023-11-21T05:24:10;101011.75;;;7.57;100.00
60244;BME280;46106;51.468;5.814;2023-11-21T05:26:35;101013.81;;;7.67;100.00
60244;BME280;46106;51.468;5.814;2023-11-21T05:29:00;101007.09;;;7.59;100.00
60244;BME280;46106;51.468;5.814;2023-11-21T05:31:26;101009.91;;;7.43;100.00
60244;BME280;46106;51.468;5.814;2023-11-21T05:33:52;101023.44;;;7.44;100.00
60244;BME280;46106;51.468;5.814;2023-11-21T05:36:18;101005.06;;;7.48;100.00
60244;BME280;46106;51.468;5.814;2023-11-21T05:38:46;101018.88;;;7.45;100.00
60244;BME280;46106;51.468;5.814;2023-11-21T05:41:12;101012.53;;;7.44;100.00
60244;BME280;46106;51.468;5.814;2023-11-21T05:43:39;101018.38;;;7.52;100.00
60244;BME280;46106;51.468;5.814;2023-11-21T05:46:05;101014.59;;;7.55;100.00
60244;BME280;46106;51.468;5.814;2023-11-21T05:48:32;101017.31;;;7.55;100.00
60244;BME280;46106;51.468;5.814;2023-11-21T05:50:57;101024.19;;;7.61;100.00
60244;BME280;46106;51.468;5.814;2023-11-21T05:53:25;101032.00;;;7.67;100.00
60244;BME280;46106;51.468;5.814;2023-11-21T05:55:51;101029.88;;;7.58;100.00
60244;BME280;46106;51.468;5.814;2023-11-21T05:58:16;101030.94;;;7.55;100.00
60244;BME280;46106;51.468;5.814;2023-11-21T06:00:42;101030.06;;;7.54;100.00
60244;BME280;46106;51.468;5.814;2023-11-21T06:03:07;101031.50;;;7.60;100.00
60244;BME280;46106;51.468;5.814;2023-11-21T06:05:33;101037.06;;;7.59;100.00
60244;BME280;46106;51.468;5.814;2023-11-21T06:07:58;101044.66;;;7.53;100.00
60244;BME280;46106;51.468;5.814;2023-11-21T06:10:24;101039.19;;;7.39;100.00
60244;BME280;46106;51.468;5.814;2023-11-21T06:12:50;101049.63;;;7.61;100.00
60244;BME280;46106;51.468;5.814;2023-11-21T06:15:16;101058.00;;;7.58;100.00
60244;BME280;46106;51.468;5.814;2023-11-21T06:17:44;101056.31;;;7.55;100.00
60244;BME280;46106;51.468;5.814;2023-11-21T06:20:14;101067.81;;;7.46;100.00
60244;BME280;46106;51.468;5.814;2023-11-21T06:22:44;101061.56;;;7.30;100.00
60244;BME280;46106;51.468;5.814;2023-11-21T06:25:12;101066.91;;;7.46;100.00
60244;BME280;46106;51.468;5.814;2023-11-21T06:27:43;101065.75;;;7.35;100.00
60244;BME280;46106;51.468;5.814;2023-11-21T06:30:09;101073.25;;;7.32;100.00
60244;BME280;46106;51.468;5.814;2023-11-21T06:32:37;101072.16;;;7.34;100.00
60244;BME280;46106;51.468;5.814;2023-11-21T06:35:04;101081.81;;;7.40;100.00
60244;BME280;46106;51.468;5.814;2023-11-21T06:37:30;101083.84;;;7.51;100.00
60244;BME280;46106;51.468;5.814;2023-11-21T06:39:58;101092.31;;;7.32;100.00
60244;BME280;46106;51.468;5.814;2023-11-21T06:42:24;101095.63;;;7.37;100.00
60244;BME280;46106;51.468;5.814;2023-11-21T06:44:50;101095.53;;;7.39;100.00
60244;BME280;46106;51.468;5.814;2023-11-21T06:47:19;101102.84;;;7.38;100.00
60244;BME280;46106;51.468;5.814;2023-11-21T06:49:54;101098.94;;;7.42;100.00
60244;BME280;46106;51.468;5.814;2023-11-21T06:52:19;101101.25;;;7.34;100.00
60244;BME280;46106;51.468;5.814;2023-11-21T06:54:45;101107.41;;;7.52;100.00
60244;BME280;46106;51.468;5.814;2023-11-21T06:57:12;101106.53;;;7.51;100.00
60244;BME280;46106;51.468;5.814;2023-11-21T06:59:38;101104.28;;;7.44;100.00
60244;BME280;46106;51.468;5.814;2023-11-21T07:02:04;101111.63;;;7.58;100.00
60244;BME280;46106;51.468;5.814;2023-11-21T07:04:32;101111.63;;;7.58;100.00
60244;BME280;46106;51.468;5.814;2023-11-21T07:06:58;101115.69;;;7.50;100.00
60244;BME280;46106;51.468;5.814;2023-11-21T07:09:23;101119.16;;;7.52;100.00
60244;BME280;46106;51.468;5.814;2023-11-21T07:11:51;101125.91;;;7.61;100.00
60244;BME280;46106;51.468;5.814;2023-11-21T07:14:17;101131.38;;;7.76;100.00
60244;BME280;46106;51.468;5.814;2023-11-21T07:16:45;101130.78;;;7.56;100.00
60244;BME280;46106;51.468;5.814;2023-11-21T07:19:10;101133.69;;;7.53;100.00
60244;BME280;46106;51.468;5.814;2023-11-21T07:21:37;101137.09;;;7.57;100.00
60244;BME280;46106;51.468;5.814;2023-11-21T07:24:04;101142.00;;;7.66;100.00
60244;BME280;46106;51.468;5.814;2023-11-21T07:26:31;101143.03;;;7.63;100.00
60244;BME280;46106;51.468;5.814;2023-11-21T07:28:58;101149.97;;;7.83;100.00
60244;BME280;46106;51.468;5.814;2023-11-21T07:31:24;101151.72;;;7.70;100.00
60244;BME280;46106;51.468;5.814;2023-11-21T07:33:50;101152.88;;;7.66;100.00
60244;BME280;46106;51.468;5.814;2023-11-21T07:36:16;101162.13;;;7.78;100.00
60244;BME280;46106;51.468;5.814;2023-11-21T07:38:43;101174.38;;;7.70;100.00
60244;BME280;46106;51.468;5.814;2023-11-21T07:41:10;101183.81;;;7.65;100.00
60244;BME280;46106;51.468;5.814;2023-11-21T07:43:36;101181.19;;;7.63;100.00
60244;BME280;46106;51.468;5.814;2023-11-21T07:46:04;101179.63;;;7.73;100.00
60244;BME280;46106;51.468;5.814;2023-11-21T07:48:30;101185.59;;;7.66;100.00
60244;BME280;46106;51.468;5.814;2023-11-21T07:50:58;101189.06;;;7.53;100.00
60244;BME280;46106;51.468;5.814;2023-11-21T07:53:28;101195.94;;;7.45;100.00
60244;BME280;46106;51.468;5.814;2023-11-21T07:55:58;101196.00;;;7.73;100.00
60244;BME280;46106;51.468;5.814;2023-11-21T07:58:24;101187.16;;;7.84;100.00
60244;BME280;46106;51.468;5.814;2023-11-21T08:00:51;101194.78;;;7.94;100.00
60244;BME280;46106;51.468;5.814;2023-11-21T08:03:17;101199.53;;;7.90;100.00
60244;BME280;46106;51.468;5.814;2023-11-21T08:05:42;101207.41;;;7.95;100.00
60244;BME280;46106;51.468;5.814;2023-11-21T08:08:08;101210.31;;;7.77;100.00
60244;BME280;46106;51.468;5.814;2023-11-21T08:10:33;101207.97;;;7.85;100.00
60244;BME280;46106;51.468;5.814;2023-11-21T08:13:01;101211.41;;;7.89;100.00
60244;BME280;46106;51.468;5.814;2023-11-21T08:15:27;101219.09;;;7.82;100.00
60244;BME280;46106;51.468;5.814;2023-11-21T08:17:54;101212.84;;;7.80;100.00
60244;BME280;46106;51.468;5.814;2023-11-21T08:20:20;101224.47;;;7.84;100.00
60244;BME280;46106;51.468;5.814;2023-11-21T08:22:47;101228.06;;;7.84;100.00
60244;BME280;46106;51.468;5.814;2023-11-21T08:25:13;101233.69;;;7.81;100.00
60244;BME280;46106;51.468;5.814;2023-11-21T08:27:39;101232.34;;;7.88;100.00
60244;BME280;46106;51.468;5.814;2023-11-21T08:30:05;101231.06;;;7.80;100.00
60244;BME280;46106;51.468;5.814;2023-11-21T08:32:30;101232.63;;;7.84;100.00
60244;BME280;46106;51.468;5.814;2023-11-21T08:34:58;101240.41;;;7.90;100.00
60244;BME280;46106;51.468;5.814;2023-11-21T08:37:24;101237.69;;;7.90;100.00
60244;BME280;46106;51.468;5.814;2023-11-21T08:39:50;101235.38;;;7.98;100.00
60244;BME280;46106;51.468;5.814;2023-11-21T08:42:18;101235.47;;;7.97;100.00
60244;BME280;46106;51.468;5.814;2023-11-21T08:44:43;101238.19;;;7.97;100.00
60244;BME280;46106;51.468;5.814;2023-11-21T08:47:09;101244.13;;;8.03;100.00
60244;BME280;46106;51.468;5.814;2023-11-21T08:49:34;101242.88;;;7.95;100.00
60244;BME280;46106;51.468;5.814;2023-11-21T08:51:59;101248.13;;;7.98;100.00
60244;BME280;46106;51.468;5.814;2023-11-21T08:54:26;101246.47;;;7.95;100.00
60244;BME280;46106;51.468;5.814;2023-11-21T08:56:54;101256.63;;;8.22;100.00
60244;BME280;46106;51.468;5.814;2023-11-21T08:59:20;101258.28;;;8.24;100.00
60244;BME280;46106;51.468;5.814;2023-11-21T09:01:46;101263.06;;;8.21;100.00
60244;BME280;46106;51.468;5.814;2023-11-21T09:04:12;101263.34;;;8.31;100.00
60244;BME280;46106;51.468;5.814;2023-11-21T09:06:39;101267.94;;;8.30;100.00
60244;BME280;46106;51.468;5.814;2023-11-21T09:09:06;101263.84;;;8.37;100.00
60244;BME280;46106;51.468;5.814;2023-11-21T09:11:33;101267.16;;;8.42;100.00
60244;BME280;46106;51.468;5.814;2023-11-21T09:14:04;101265.69;;;8.37;100.00
60244;BME280;46106;51.468;5.814;2023-11-21T09:16:30;101272.59;;;8.42;100.00
60244;BME280;46106;51.468;5.814;2023-11-21T09:18:57;101274.75;;;8.37;100.00
60244;BME280;46106;51.468;5.814;2023-11-21T09:21:22;101283.66;;;8.55;100.00
60244;BME280;46106;51.468;5.814;2023-11-21T09:23:48;101282.19;;;8.64;100.00
60244;BME280;46106;51.468;5.814;2023-11-21T09:26:14;101285.81;;;8.50;100.00
60244;BME280;46106;51.468;5.814;2023-11-21T09:28:43;101284.25;;;8.60;100.00
60244;BME280;46106;51.468;5.814;2023-11-21T09:31:13;101287.66;;;8.64;100.00
60244;BME280;46106;51.468;5.814;2023-11-21T09:33:42;101289.97;;;8.70;100.00
60244;BME280;46106;51.468;5.814;2023-11-21T09:36:11;101288.53;;;8.64;100.00
60244;BME280;46106;51.468;5.814;2023-11-21T09:38:38;101303.34;;;8.60;100.00
60244;BME280;46106;51.468;5.814;2023-11-21T09:41:06;101300.53;;;8.62;100.00
60244;BME280;46106;51.468;5.814;2023-11-21T09:43:38;101306.06;;;8.75;100.00
60244;BME280;46106;51.468;5.814;2023-11-21T09:46:05;101307.94;;;8.89;100.00
60244;BME280;46106;51.468;5.814;2023-11-21T09:48:33;101315.50;;;8.98;100.00
60244;BME280;46106;51.468;5.814;2023-11-21T09:51:03;101314.47;;;8.72;100.00
60244;BME280;46106;51.468;5.814;2023-11-21T09:53:31;101311.13;;;8.95;100.00
60244;BME280;46106;51.468;5.814;2023-11-21T09:55:58;101307.94;;;8.89;100.00
60244;BME280;46106;51.468;5.814;2023-11-21T09:58:26;101310.53;;;8.90;100.00
60244;BME280;46106;51.468;5.814;2023-11-21T10:00:57;101320.28;;;8.94;100.00
60244;BME280;46106;51.468;5.814;2023-11-21T10:03:25;101311.34;;;8.78;100.00
60244;BME280;46106;51.468;5.814;2023-11-21T10:05:50;101321.06;;;8.96;100.00
60244;BME280;46106;51.468;5.814;2023-11-21T10:08:20;101316.56;;;9.10;100.00
60244;BME280;46106;51.468;5.814;2023-11-21T10:10:51;101327.34;;;9.26;100.00
60244;BME280;46106;51.468;5.814;2023-11-21T10:13:20;101332.44;;;9.32;100.00
60244;BME280;46106;51.468;5.814;2023-11-21T10:15:50;101346.53;;;9.53;100.00
60244;BME280;46106;51.468;5.814;2023-11-21T10:18:16;101344.41;;;9.29;100.00
60244;BME280;46106;51.468;5.814;2023-11-21T10:20:41;101348.88;;;9.45;100.00
60244;BME280;46106;51.468;5.814;2023-11-21T10:23:08;101349.75;;;9.45;100.00
60244;BME280;46106;51.468;5.814;2023-11-21T10:25:37;101345.72;;;9.51;100.00
60244;BME280;46106;51.468;5.814;2023-11-21T10:28:03;101350.03;;;9.55;100.00
60244;BME280;46106;51.468;5.814;2023-11-21T10:30:33;101347.28;;;9.55;100.00
60244;BME280;46106;51.468;5.814;2023-11-21T10:33:02;101347.84;;;9.60;100.00
60244;BME280;46106;51.468;5.814;2023-11-21T10:35:47;101354.97;;;9.63;100.00
60244;BME280;46106;51.468;5.814;2023-11-21T10:38:18;101352.03;;;9.66;100.00
60244;BME280;46106;51.468;5.814;2023-11-21T10:40:46;101355.75;;;9.65;100.00
60244;BME280;46106;51.468;5.814;2023-11-21T10:43:13;101354.88;;;9.64;100.00
60244;BME280;46106;51.468;5.814;2023-11-21T10:45:40;101358.28;;;9.68;100.00
60244;BME280;46106;51.468;5.814;2023-11-21T10:48:10;101351.91;;;9.67;100.00
60244;BME280;46106;51.468;5.814;2023-11-21T10:50:39;101357.91;;;9.60;100.00
60244;BME280;46106;51.468;5.814;2023-11-21T10:53:05;101357.00;;;9.46;100.00
60244;BME280;46106;51.468;5.814;2023-11-21T10:55:32;101361.56;;;9.46;100.00
60244;BME280;46106;51.468;5.814;2023-11-21T10:58:03;101366.41;;;9.55;100.00
60244;BME280;46106;51.468;5.814;2023-11-21T11:00:30;101367.19;;;9.57;100.00
60244;BME280;46106;51.468;5.814;2023-11-21T11:02:56;101366.63;;;9.52;100.00
60244;BME280;46106;51.468;5.814;2023-11-21T11:05:28;101366.63;;;9.52;100.00
60244;BME280;46106;51.468;5.814;2023-11-21T11:08:05;101367.56;;;9.38;100.00
60244;BME280;46106;51.468;5.814;2023-11-21T11:10:33;101366.09;;;9.32;100.00
60244;BME280;46106;51.468;5.814;2023-11-21T11:12:59;101369.47;;;9.50;100.00
60244;BME280;46106;51.468;5.814;2023-11-21T11:15:25;101375.28;;;9.59;100.00
60244;BME280;46106;51.468;5.814;2023-11-21T11:17:52;101377.53;;;9.66;100.00
60244;BME280;46106;51.468;5.814;2023-11-21T11:20:30;101378.19;;;9.70;100.00
60244;BME280;46106;51.468;5.814;2023-11-21T11:25:56;101372.44;;;9.60;100.00
60244;BME280;46106;51.468;5.814;2023-11-21T11:28:47;101381.75;;;9.57;100.00
60244;BME280;46106;51.468;5.814;2023-11-21T11:34:48;101377.22;;;9.71;100.00
60244;BME280;46106;51.468;5.814;2023-11-21T11:37:17;101381.13;;;9.67;100.00
60244;BME280;46106;51.468;5.814;2023-11-21T11:39:43;101388.66;;;9.63;100.00
60244;BME280;46106;51.468;5.814;2023-11-21T11:42:12;101396.09;;;9.61;100.00
60244;BME280;46106;51.468;5.814;2023-11-21T11:47:31;101410.31;;;9.66;100.00
60244;BME280;46106;51.468;5.814;2023-11-21T11:53:14;101415.59;;;9.69;100.00
60244;BME280;46106;51.468;5.814;2023-11-21T11:55:40;101416.28;;;9.59;100.00
60244;BME280;46106;51.468;5.814;2023-11-21T11:58:07;101421.47;;;9.63;100.00
60244;BME280;46106;51.468;5.814;2023-11-21T12:00:37;101419.66;;;9.77;100.00
60244;BME280;46106;51.468;5.814;2023-11-21T12:03:10;101428.63;;;9.79;100.00
60244;BME280;46106;51.468;5.814;2023-11-21T12:05:39;101423.97;;;9.81;100.00
60244;BME280;46106;51.468;5.814;2023-11-21T12:08:07;101426.63;;;9.68;100.00
60244;BME280;46106;51.468;5.814;2023-11-21T12:10:35;101421.22;;;9.81;100.00
60244;BME280;46106;51.468;5.814;2023-11-21T12:13:10;101419.94;;;9.86;100.00
60244;BME280;46106;51.468;5.814;2023-11-21T12:15:38;101427.22;;;9.73;100.00
60244;BME280;46106;51.468;5.814;2023-11-21T12:18:09;101433.03;;;9.81;100.00
60244;BME280;46106;51.468;5.814;2023-11-21T12:20:39;101438.22;;;9.86;100.00
60244;BME280;46106;51.468;5.814;2023-11-21T12:23:12;101449.34;;;9.83;100.00
60244;BME280;46106;51.468;5.814;2023-11-21T12:25:45;101459.19;;;9.85;100.00
60244;BME280;46106;51.468;5.814;2023-11-21T12:28:12;101461.06;;;9.85;100.00
60244;BME280;46106;51.468;5.814;2023-11-21T12:30:37;101456.19;;;9.75;100.00
60244;BME280;46106;51.468;5.814;2023-11-21T12:33:03;101466.53;;;9.85;100.00
60244;BME280;46106;51.468;5.814;2023-11-21T12:35:34;101461.16;;;9.83;100.00
60244;BME280;46106;51.468;5.814;2023-11-21T12:38:02;101471.34;;;9.81;100.00
60244;BME280;46106;51.468;5.814;2023-11-21T12:40:28;101465.97;;;9.80;100.00
60244;BME280;46106;51.468;5.814;2023-11-21T12:42:58;101475.88;;;9.95;100.00
60244;BME280;46106;51.468;5.814;2023-11-21T12:45:28;101478.44;;;9.84;100.00
60244;BME280;46106;51.468;5.814;2023-11-21T12:48:02;101472.41;;;9.79;100.00
60244;BME280;46106;51.468;5.814;2023-11-21T12:50:33;101468.69;;;9.80;100.00
60244;BME280;46106;51.468;5.814;2023-11-21T12:53:01;101473.38;;;9.92;100.00
60244;BME280;46106;51.468;5.814;2023-11-21T12:55:33;101474.22;;;9.92;100.00
60244;BME280;46106;51.468;5.814;2023-11-21T12:58:02;101471.59;;;9.91;100.00
60244;BME280;46106;51.468;5.814;2023-11-21T13:00:37;101480.47;;;9.94;100.00
60244;BME280;46106;51.468;5.814;2023-11-21T13:03:06;101481.34;;;9.95;100.00